Berryton, Kansas
Current Conditions -  °F | °C
As of 12:53 PM on Thursday 30 Oct 2014 (Local Time) from KFOE Reporting Station
Clear Clear  
Wind Chill: 69°   Ceiling: Unl
Heat Index: 69°   Visibility: 10mi
Dew Point: 40°   Wind: 25mph
Humidity: 35%   Direction: 320°NW
Pressure: 30.05"   Gusts: 30mph
Location:  38.94°N, 95.63°W
Report Text: KFOE 301753Z 32022G26KT 10SM CLR 21/04 A3005 RMK AO2 PK WND 33031/1708 SLP172 60000 T02060044 10206 20072 50003
Loading
Personal Weather Stations






























Interactive Weather Map
Tropical Storm Tracking
New forecast layout! Learn more

10-Day Weather Forecast

Advertisements
Track Severe Weather on mobile